Flight Track Log - Related Links

Times and Time Zones

All times are in EDT time to prevent confusion due to time zone crossing. See the DAL4165 flight status page for this flight to view local times or setup timezone preferences in your user account.

Time Position Orientation Groundspeed Altitude Reporting Facility
EDT Latitude Longitude Course Direction KTS MPH feet Rate Location/Type
Thu 04:32:53 PM 33.6500 -84.4667 252° West 169 194 2,300  Level Atlanta TRACON
Thu 04:33:53 PM 33.6667 -84.5333 287° West 237 273 3,800 2,238 Climbing Atlanta TRACON
Thu 04:34:59 PM 33.6833 -84.6167 284° West 260 299 7,000 2,810 Climbing Atlanta TRACON
Thu 04:35:00 PM 33.8000 -84.3147 270° West  Level FlightAware Approximate
Thu 04:35:59 PM 33.6833 -84.7000 270° West 260 299 9,700  Level Atlanta TRACON
Thu 04:36:00 PM 33.8001 -84.4360 270° West  Level FlightAware Approximate
Thu 04:36:59 PM 33.7000 -84.8000 281° West 327 376 10,300  Level Atlanta TRACON
Thu 04:37:00 PM 33.8000 -84.5573 270° West  Level FlightAware Approximate
Thu 04:37:53 PM 33.6847 -84.8975 259° West 349 402 12,200  Level Atlanta Center
Thu 04:38:00 PM 33.7838 -84.6755 252° West  Level FlightAware Approximate
Thu 04:38:53 PM 33.6714 -85.0122 262° West 349 402 14,400  Level Atlanta Center
Thu 04:39:53 PM 33.6600 -85.1369 264° West 349 402 16,500 1,950 Climbing Atlanta Center
Thu 04:40:53 PM 33.6483 -85.2517 263° West 349 402 18,300 1,550 Climbing Atlanta Center
Thu 04:41:53 PM 33.6494 -85.3689 271° West 349 402 19,600 1,250 Climbing Atlanta Center
Thu 04:42:53 PM 33.6522 -85.4861 272° West 349 402 20,800 1,200 Climbing Atlanta Center
Thu 04:43:53 PM 33.6547 -85.6111 271° West 366 421 22,000 1,200 Climbing Atlanta Center
Thu 04:44:53 PM 33.6572 -85.7408 271° West 371 427 23,200 1,150 Climbing Atlanta Center
Thu 04:45:53 PM 33.6578 -85.8458 270° West 371 427 24,300 1,150 Climbing Atlanta Center
Thu 04:46:53 PM 33.6600 -85.9756 271° West 371 427 25,500 1,200 Climbing Atlanta Center
Thu 04:47:53 PM 33.6622 -86.0978 271° West 371 427 26,700 1,200 Climbing Atlanta Center
Thu 04:48:53 PM 33.6622 -86.2228 270° West 376 433 27,900 1,200 Climbing Atlanta Center
Thu 04:49:53 PM 33.6661 -86.3475 272° West 376 433 29,100 1,050 Climbing Atlanta Center
Thu 04:50:53 PM 33.6658 -86.4722 270° West 376 433 30,000 450 Climbing Atlanta Center
Thu 04:51:53 PM 33.6653 -86.5997 270° West 381 438 30,000  Level Atlanta Center
Thu 04:52:53 PM 33.6667 -86.7294 271° West 387 445 30,000  Level Atlanta Center
Thu 04:53:53 PM 33.6681 -86.8592 271° West 387 445 30,000  Level Atlanta Center
Thu 04:54:53 PM 33.6858 -86.9897 279° West 387 445 30,000  Level Atlanta Center
Thu 04:57:21 PM 33.7578 -87.3167 285° West 390 449 30,000  Level Memphis Center
Thu 04:58:21 PM 33.7836 -87.4431 284° West 390 449 30,000  Level Memphis Center
Thu 04:59:21 PM 33.8117 -87.5697 285° West 390 449 30,000  Level Memphis Center
Thu 05:01:00 PM 33.8535 -87.7730 284° West  Level FlightAware Approximate
Thu 05:01:21 PM 33.8631 -87.8256 284° West 395 455 30,000  Level Memphis Center
Thu 05:02:21 PM 33.8883 -87.9500 284° West 395 455 30,000  Level Memphis Center
Thu 05:03:21 PM 33.9200 -88.0742 287° West 395 455 30,000  Level Memphis Center
Thu 05:04:21 PM 33.9364 -88.1789 281° West 395 455 30,000  Level Memphis Center
Thu 05:05:21 PM 33.9639 -88.3211 283° West 395 455 30,000  Level Memphis Center
Thu 05:06:21 PM 33.9889 -88.4508 283° West 395 455 30,000  Level Memphis Center
Thu 05:07:21 PM 34.0158 -88.5781 284° West 395 455 30,000  Level Memphis Center
Thu 05:08:21 PM 34.0406 -88.7053 283° West 395 455 30,000  Level Memphis Center
Thu 05:09:21 PM 34.0653 -88.8303 283° West 395 455 30,000  Level Memphis Center
Thu 05:10:21 PM 34.0917 -88.9550 284° West 390 449 30,000  Level Memphis Center
Thu 05:11:21 PM 34.1139 -89.0803 282° West 395 455 30,000  Level Memphis Center
Thu 05:12:21 PM 34.1403 -89.2103 284° West 395 455 30,000  Level Memphis Center
Thu 05:13:21 PM 34.1644 -89.3381 283° West 396 456 30,000  Level Memphis Center
Thu 05:14:21 PM 34.1925 -89.4758 284° West 396 456 30,000  Level Memphis Center
Thu 05:15:21 PM 34.2164 -89.6061 283° West 396 456 30,000  Level Memphis Center
Thu 05:16:21 PM 34.2400 -89.7342 283° West 396 456 30,000 -350 Level Memphis Center
Thu 05:17:21 PM 34.2636 -89.8644 282° West 389 448 29,300 -850 Descending Memphis Center
Thu 05:18:21 PM 34.2889 -89.9900 284° West 389 448 28,300 -650 Descending Memphis Center
Thu 05:19:21 PM 34.3103 -90.1158 282° West 389 448 28,000 -150 Descending Memphis Center
Thu 05:20:21 PM 34.3356 -90.2439 283° West 389 448 28,000  Level Memphis Center
Thu 05:21:21 PM 34.3564 -90.3572 283° West 394 453 28,000  Level Memphis Center
Thu 05:22:21 PM 34.3792 -90.4856 282° West 394 453 28,000  Level Memphis Center
Thu 05:23:21 PM 34.4042 -90.6164 283° West 394 453 28,000  Level Memphis Center
Thu 05:24:21 PM 34.4247 -90.7400 281° West 389 448 28,000  Level Memphis Center
Thu 05:25:21 PM 34.4492 -90.8658 283° West 389 448 28,000  Level Memphis Center
Thu 05:26:21 PM 34.4736 -91.0072 282° West 389 448 28,000  Level Memphis Center
Thu 05:27:21 PM 34.4958 -91.1308 282° West 389 448 28,000  Level Memphis Center
Thu 05:28:21 PM 34.5200 -91.2594 283° West 389 448 28,000  Level Memphis Center
Thu 05:29:21 PM 34.5400 -91.3858 281° West 389 448 28,000  Level Memphis Center
Thu 05:30:21 PM 34.5639 -91.5147 283° West 394 453 28,000  Level Memphis Center
Thu 05:31:21 PM 34.5878 -91.6411 283° West 394 453 28,000  Level Memphis Center
Thu 05:32:21 PM 34.6072 -91.7675 281° West 394 453 28,000  Level Memphis Center
Thu 05:33:21 PM 34.6308 -91.8967 283° West 394 453 28,000  Level Memphis Center
Thu 05:34:21 PM 34.6542 -92.0258 282° West 394 453 28,000  Level Memphis Center
Thu 05:35:21 PM 34.6731 -92.1550 280° West 394 453 28,000  Level Memphis Center
Thu 05:36:21 PM 34.6919 -92.2869 280° West 394 453 28,000  Level Memphis Center
Thu 05:37:21 PM 34.7131 -92.4161 281° West 394 453 28,000  Level Memphis Center
Thu 05:38:21 PM 34.7294 -92.5481 279° West 394 453 28,000  Level Memphis Center
Thu 05:39:21 PM 34.7500 -92.6825 281° West 394 453 28,000  Level Memphis Center
Thu 05:40:21 PM 34.7683 -92.8144 280° West 394 453 28,000  Level Memphis Center
Thu 05:41:21 PM 34.7844 -92.9439 279° West 394 453 28,000  Level Memphis Center
Thu 05:42:21 PM 34.8025 -93.0758 279° West 394 453 28,000  Level Memphis Center
Thu 05:43:21 PM 34.8206 -93.2081 279° West 394 453 28,000  Level Memphis Center
Thu 05:44:21 PM 34.8347 -93.3122 279° West 394 453 28,000  Level Memphis Center
Thu 05:45:21 PM 34.8561 -93.4597 280° West 394 453 28,000  Level Memphis Center
Thu 05:46:21 PM 34.8739 -93.5894 280° West 394 453 28,000  Level Memphis Center
Thu 05:47:21 PM 34.8911 -93.7217 279° West 394 453 28,000  Level Memphis Center
Thu 05:48:21 PM 34.9083 -93.8517 279° West 394 453 28,000  Level Memphis Center
Thu 05:49:21 PM 34.9236 -93.9814 278° West 394 453 28,000  Level Memphis Center
Thu 05:50:21 PM 34.9425 -94.1139 280° West 394 453 28,000  Level Memphis Center
Thu 05:51:21 PM 34.9592 -94.2464 279° West 394 453 28,000  Level Memphis Center
Thu 05:53:18 PM 34.9931 -94.5067 279° West 415 478 28,000  Level Fort Worth Center
Thu 05:54:18 PM 35.0086 -94.6378 278° West 409 471 28,000  Level Fort Worth Center
Thu 05:55:18 PM 35.0258 -94.7692 279° West 402 463 28,000  Level Fort Worth Center
Thu 05:56:18 PM 35.0433 -94.9006 279° West 396 456 28,000  Level Fort Worth Center
Thu 05:57:18 PM 35.0625 -95.0344 280° West 396 456 28,000 -50 Level Fort Worth Center
Thu 05:58:18 PM 35.0817 -95.1606 281° West 396 456 27,900 -450 Descending Fort Worth Center
Thu 05:59:18 PM 35.0983 -95.2922 279° West 391 450 27,100 -850 Descending Fort Worth Center
Thu 06:00:18 PM 35.1153 -95.4261 279° West 391 450 26,200 -850 Descending Fort Worth Center
Thu 06:01:18 PM 35.1319 -95.5553 279° West 391 450 25,400 -800 Descending Fort Worth Center
Thu 06:02:18 PM 35.1461 -95.6894 277° West 391 450 24,600 -800 Descending Fort Worth Center
Thu 06:03:18 PM 35.1333 -95.8219 263° West 391 450 23,800 -950 Descending Fort Worth Center
Thu 06:04:18 PM 35.1103 -95.9744 260° West 402 463 22,700 -1,050 Descending Fort Worth Center
Thu 06:05:18 PM 35.0950 -96.1067 262° West 407 468 21,700 -1,000 Descending Fort Worth Center
Thu 06:06:18 PM 35.1172 -96.2358 282° West 391 450 20,700 -1,100 Descending Fort Worth Center
Thu 06:07:18 PM 35.1433 -96.3625 284° West 391 450 19,500 -1,350 Descending Fort Worth Center
Thu 06:08:18 PM 35.1692 -96.4892 284° West 391 450 18,000 -1,596 Descending Fort Worth Center
Thu 06:09:07 PM 35.1908 -96.5931 284° West 388 447 16,600 -1,806 Descending Fort Worth Center
Thu 06:10:01 PM 35.2167 -96.7072 286° West 371 427 14,900 -1,944 Descending Fort Worth Center
Thu 06:10:18 PM 35.2231 -96.7350 286° West 391 450 14,300 -1,770 Descending Fort Worth Center
Thu 06:11:02 PM 35.2464 -96.8214 288° West 360 414 13,100 -1,800 Descending Fort Worth Center
Thu 06:11:18 PM 35.2547 -96.8492 290° West 371 427 12,500 -1,770 Descending Fort Worth Center
Thu 06:12:03 PM 35.2781 -96.9356 288° West 356 410 11,300 -1,800 Descending Fort Worth Center
Thu 06:12:18 PM 35.2844 -96.9633 286° West 364 419 10,700 -1,222 Descending Fort Worth Center
Thu 06:12:57 PM 35.3036 -97.0397 287° West 347 399 10,200 -700 Descending Fort Worth Center
Thu 06:13:18 PM 35.3097 -97.0700 284° West 347 399 10,000 -545 Descending Fort Worth Center
Thu 06:13:52 PM 35.3267 -97.1236 291° West 261 300 9,700 -1,100 Descending Fort Worth Center
Thu 06:14:18 PM 35.3414 -97.1514 303° West 307 353 8,900 -1,475 Descending Fort Worth Center
Thu 06:14:53 PM 35.3644 -97.1997 300° West 255 293 8,200 -1,500 Descending Fort Worth Center
Thu 06:15:18 PM 35.3811 -97.2278 306° West 273 314 7,400 -1,583 Descending Fort Worth Center
Thu 06:16:05 PM 35.4103 -97.2964 298° West 267 307 6,300 -1,450 Descending Fort Worth Center
Thu 06:17:18 PM 35.4542 -97.3983 298° West 279 321 4,500 -1,138 Descending Fort Worth Center
Thu 06:18:01 PM 35.4772 -97.4594 295° West 275 316 4,100 -600 Descending Fort Worth Center
Thu 06:18:18 PM 35.4897 -97.4825 304° West 284 327 3,900 -222 Descending Fort Worth Center
Thu 06:18:55 PM 35.5000 -97.5258 286° West 218 251 3,900 -400 Level Fort Worth Center
Thu 06:19:18 PM 35.5042 -97.5514 281° West 249 287 3,500 -1,043 Descending Fort Worth Center

Login

Don't have an account? Register now (free) for customized features, flight alerts, and more!